Time;durP1;ratioP1;P1;durP2;ratioP2;P2;SDS_P1;SDS_P2;PMS_P1;PMS_P2;Temp;Humidity;BMP_temperature;BMP_pressure;BME280_temperature;BME280_humidity;BME280_pressure;Samples;Min_cycle;Max_cycle;Signal;HPM_P1;HPM_P2
2023/05/13 00:01:44;;;;;;;;;;;;;;;14.90;77.05;101988.97;5064384;28;19970;-64
2023/05/13 00:04:09;;;;;;;;;;;;;;;14.88;77.35;101987.31;5061306;28;19927;-64
2023/05/13 00:06:35;;;;;;;;;;;;;;;14.88;77.25;101989.16;5059845;28;19955;-64
2023/05/13 00:09:00;;;;;;;;;;;;;;;14.86;77.03;101992.00;5067034;28;19920;-64
2023/05/13 00:11:26;;;;;;;;;;;;;;;14.85;76.89;101992.16;5052410;28;19917;-64
2023/05/13 00:13:51;;;;;;;;;;;;;;;14.83;77.01;101983.47;5064127;28;19917;-64
2023/05/13 00:16:16;;;;;;;;;;;;;;;14.83;76.79;101983.47;5064475;28;19912;-64
2023/05/13 00:18:41;;;;;;;;;;;;;;;14.81;76.74;101982.81;5057261;28;19920;-64
2023/05/13 00:21:08;;;;;;;;;;;;;;;14.79;76.97;101987.50;5063738;28;22319;-64
2023/05/13 00:23:34;;;;;;;;;;;;;;;14.78;76.93;101983.16;5058704;28;19923;-64
2023/05/13 00:25:59;;;;;;;;;;;;;;;14.76;76.64;101982.50;5061969;28;20003;-64
2023/05/13 00:28:24;;;;;;;;;;;;;;;14.74;76.56;101979.13;5064829;28;19924;-64
2023/05/13 00:30:49;;;;;;;;;;;;;;;14.71;76.52;101982.16;5061381;28;19955;-64
2023/05/13 00:33:15;;;;;;;;;;;;;;;14.68;76.76;101977.97;5065479;28;19936;-64
2023/05/13 00:35:40;;;;;;;;;;;;;;;14.64;76.47;101982.00;5066178;28;19925;-64
2023/05/13 00:38:06;;;;;;;;;;;;;;;14.60;76.71;101979.84;5059381;28;20570;-64
2023/05/13 00:40:33;;;;;;;;;;;;;;;14.55;76.73;101981.19;5064159;28;19920;-64
2023/05/13 00:42:58;;;;;;;;;;;;;;;14.52;76.68;101989.53;5061967;28;19917;-64
2023/05/13 00:45:23;;;;;;;;;;;;;;;14.46;76.66;101982.19;5062366;28;19948;-64
2023/05/13 00:47:48;;;;;;;;;;;;;;;14.43;76.53;101987.84;5056717;28;19970;-64
2023/05/13 00:50:14;;;;;;;;;;;;;;;14.38;76.47;101984.00;5061438;28;19924;-64
2023/05/13 00:52:40;;;;;;;;;;;;;;;14.34;76.71;101994.19;5051280;28;19921;-64
2023/05/13 00:55:07;;;;;;;;;;;;;;;14.30;76.33;101987.50;5059854;28;19924;-64
2023/05/13 00:57:32;;;;;;;;;;;;;;;14.27;76.72;101991.34;5061308;28;19920;-63
2023/05/13 00:59:57;;;;;;;;;;;;;;;14.24;76.53;101989.00;5059446;28;20275;-64
2023/05/13 01:02:41;;;;;;;;;;;;;;;14.22;76.55;101990.19;5062038;28;19917;-64
2023/05/13 01:05:25;;;;;;;;;;;;;;;14.17;76.80;101988.00;5061617;28;19994;-64
2023/05/13 01:08:02;;;;;;;;;;;;;;;14.15;76.63;101986.47;5064543;28;19970;-63
2023/05/13 01:10:40;;;;;;;;;;;;;;;14.12;76.75;101986.81;5053311;28;19924;-63
2023/05/13 01:13:08;;;;;;;;;;;;;;;14.08;76.78;101988.97;5060227;28;19924;-62
2023/05/13 01:15:36;;;;;;;;;;;;;;;14.07;76.82;101986.47;5067680;28;20492;-64
2023/05/13 01:18:14;;;;;;;;;;;;;;;14.02;76.70;101984.31;5063822;28;19920;-64
2023/05/13 01:20:40;;;;;;;;;;;;;;;13.99;76.52;101981.13;5056920;28;19920;-64
2023/05/13 01:23:05;;;;;;;;;;;;;;;13.94;76.77;101982.47;5054216;28;19916;-64
2023/05/13 01:25:30;;;;;;;;;;;;;;;13.91;76.82;101980.13;5060524;28;19927;-64
2023/05/13 01:27:56;;;;;;;;;;;;;;;13.88;76.50;101976.97;5067576;28;19916;-64
2023/05/13 01:30:22;;;;;;;;;;;;;;;13.85;76.59;101970.09;5067282;28;19931;-64
2023/05/13 01:32:47;;;;;;;;;;;;;;;13.83;76.85;101980.09;5065343;28;19921;-63
2023/05/13 01:35:14;;;;;;;;;;;;;;;13.78;76.90;101985.09;5067522;28;19923;-64
2023/05/13 01:37:40;;;;;;;;;;;;;;;13.73;76.95;101976.75;5053370;28;19913;-63
2023/05/13 01:40:06;;;;;;;;;;;;;;;13.68;76.94;101979.06;5060705;28;20019;-63
2023/05/13 01:42:33;;;;;;;;;;;;;;;13.63;76.79;101987.56;5064962;28;20600;-64
2023/05/13 01:44:58;;;;;;;;;;;;;;;13.58;77.01;101984.53;5063228;28;19999;-64
2023/05/13 01:47:23;;;;;;;;;;;;;;;13.55;76.93;101986.69;5067182;28;20053;-64
2023/05/13 01:49:48;;;;;;;;;;;;;;;13.52;77.00;101987.84;5057021;28;20302;-64
2023/05/13 01:52:13;;;;;;;;;;;;;;;13.50;77.25;101981.00;5068535;28;19947;-64
2023/05/13 01:54:38;;;;;;;;;;;;;;;13.48;77.35;101988.34;5065989;28;19940;-64
2023/05/13 01:57:04;;;;;;;;;;;;;;;13.45;77.42;101986.00;5069542;28;19919;-64
2023/05/13 01:59:29;;;;;;;;;;;;;;;13.43;77.09;101991.50;5068309;28;19912;-64
2023/05/13 02:01:55;;;;;;;;;;;;;;;13.41;77.10;101988.16;5071269;28;19967;-64
2023/05/13 02:04:20;;;;;;;;;;;;;;;13.40;77.42;101983.81;5066350;28;19992;-64
2023/05/13 02:06:46;;;;;;;;;;;;;;;13.39;77.16;101991.97;5064653;28;19974;-63
2023/05/13 02:09:11;;;;;;;;;;;;;;;13.38;77.26;101987.66;5063078;28;20075;-64
2023/05/13 02:11:37;;;;;;;;;;;;;;;13.36;77.39;101981.63;5069040;28;19923;-64
2023/05/13 02:14:02;;;;;;;;;;;;;;;13.36;77.20;101990.47;5067202;28;19928;-64
2023/05/13 02:16:27;;;;;;;;;;;;;;;13.35;77.37;101991.47;5067339;28;20386;-63
2023/05/13 02:18:52;;;;;;;;;;;;;;;13.35;77.18;101995.97;5057935;28;19923;-63
2023/05/13 02:21:17;;;;;;;;;;;;;;;13.32;77.19;101991.81;5065935;28;20341;-64
2023/05/13 02:23:43;;;;;;;;;;;;;;;13.29;77.46;101992.94;5068814;28;20007;-63
2023/05/13 02:26:08;;;;;;;;;;;;;;;13.28;77.22;101985.91;5063616;28;19971;-63
2023/05/13 02:28:33;;;;;;;;;;;;;;;13.26;77.36;101985.25;5062966;28;19975;-64
2023/05/13 02:30:58;;;;;;;;;;;;;;;13.25;77.19;101993.41;5056326;28;19928;-64
2023/05/13 02:33:23;;;;;;;;;;;;;;;13.22;77.23;101994.56;5060818;28;19916;-63
2023/05/13 02:35:49;;;;;;;;;;;;;;;13.20;77.18;101985.91;5060239;28;19925;-64
2023/05/13 02:38:14;;;;;;;;;;;;;;;13.18;77.20;101985.22;5063790;28;20344;-63
2023/05/13 02:40:39;;;;;;;;;;;;;;;13.16;77.33;101987.19;5060625;28;20290;-64
2023/05/13 02:43:04;;;;;;;;;;;;;;;13.13;77.35;101989.34;5059657;28;19917;-64
2023/05/13 02:45:29;;;;;;;;;;;;;;;13.11;77.36;101988.66;5063870;28;19917;-64
2023/05/13 02:47:55;;;;;;;;;;;;;;;13.08;77.50;101978.31;5056304;28;19936;-64
2023/05/13 02:50:20;;;;;;;;;;;;;;;13.07;77.18;101982.81;5067597;28;19917;-63
2023/05/13 02:52:45;;;;;;;;;;;;;;;13.05;77.42;101981.28;5062331;28;19917;-64
2023/05/13 02:55:10;;;;;;;;;;;;;;;13.02;77.23;101982.47;5064683;28;19916;-64
2023/05/13 02:57:36;;;;;;;;;;;;;;;13.00;77.15;101984.41;5053898;28;20390;-64
2023/05/13 03:00:03;;;;;;;;;;;;;;;12.96;77.38;101978.56;5064275;28;19927;-63
2023/05/13 03:02:28;;;;;;;;;;;;;;;12.90;77.50;101986.38;5067140;28;19916;-63
2023/05/13 03:04:56;;;;;;;;;;;;;;;12.84;77.39;101979.84;5065655;28;19923;-63
2023/05/13 03:07:22;;;;;;;;;;;;;;;12.77;76.99;101977.97;5058499;28;19931;-64
2023/05/13 03:09:48;;;;;;;;;;;;;;;12.69;77.04;101984.91;5061220;28;20003;-64
2023/05/13 03:12:13;;;;;;;;;;;;;;;12.63;77.00;101982.84;5065836;28;19920;-63
2023/05/13 03:14:38;;;;;;;;;;;;;;;12.60;77.38;101983.16;5067538;28;19943;-63
2023/05/13 03:17:04;;;;;;;;;;;;;;;12.57;77.57;101978.16;5065074;28;19917;-63
2023/05/13 03:19:29;;;;;;;;;;;;;;;12.55;77.34;101982.81;5066506;28;19917;-64
2023/05/13 03:21:54;;;;;;;;;;;;;;;12.54;77.65;101985.63;5069166;28;19966;-64
2023/05/13 03:24:19;;;;;;;;;;;;;;;12.53;77.81;101989.28;5063211;28;19916;-64
2023/05/13 03:26:45;;;;;;;;;;;;;;;12.52;77.38;101990.28;5056757;28;19939;-64
2023/05/13 03:29:10;;;;;;;;;;;;;;;12.50;77.73;101987.78;5065515;28;19917;-64
2023/05/13 03:31:35;;;;;;;;;;;;;;;12.49;77.82;101991.44;5068598;28;19916;-64
2023/05/13 03:34:00;;;;;;;;;;;;;;;12.48;77.65;101992.41;5065395;28;19952;-64
2023/05/13 03:36:26;;;;;;;;;;;;;;;12.44;77.76;101988.41;5063357;28;19927;-64
2023/05/13 03:38:51;;;;;;;;;;;;;;;12.40;77.45;101995.84;5067138;28;19920;-64
2023/05/13 03:41:16;;;;;;;;;;;;;;;12.36;77.68;101993.63;5068803;28;19916;-63
2023/05/13 03:43:41;;;;;;;;;;;;;;;12.31;77.58;101991.44;5067214;28;19924;-64
2023/05/13 03:46:07;;;;;;;;;;;;;;;12.26;77.60;101996.41;5069501;28;20278;-63
2023/05/13 03:48:32;;;;;;;;;;;;;;;12.21;77.38;101996.03;5060498;28;19928;-63
2023/05/13 03:50:57;;;;;;;;;;;;;;;12.18;77.48;101992.84;5067020;28;19959;-64
2023/05/13 03:53:22;;;;;;;;;;;;;;;12.13;77.52;101990.59;5062066;28;19924;-64
2023/05/13 03:55:47;;;;;;;;;;;;;;;12.09;77.38;101998.06;5057871;28;19964;-64
2023/05/13 03:58:14;;;;;;;;;;;;;;;12.07;77.48;101993.88;5063988;28;19916;-63
2023/05/13 04:00:39;;;;;;;;;;;;;;;12.03;77.71;101998.69;5067886;28;19969;-64
2023/05/13 04:03:04;;;;;;;;;;;;;;;12.00;77.52;101995.47;5066034;28;19921;-63
2023/05/13 04:05:30;;;;;;;;;;;;;;;11.99;77.42;102004.47;5064280;28;19920;-64
2023/05/13 04:07:55;;;;;;;;;;;;;;;11.96;77.87;102002.94;5068349;28;20363;-64
2023/05/13 04:10:20;;;;;;;;;;;;;;;11.95;77.84;102001.25;5066826;28;19917;-63
2023/05/13 04:12:45;;;;;;;;;;;;;;;11.95;78.21;102000.44;5065152;28;19982;-63
2023/05/13 04:15:10;;;;;;;;;;;;;;;11.96;78.18;102002.09;5064256;28;19924;-63
2023/05/13 04:17:36;;;;;;;;;;;;;;;11.95;78.27;101995.09;5056620;28;20008;-64
2023/05/13 04:20:01;;;;;;;;;;;;;;;11.95;78.06;102003.09;5066604;28;19916;-63
2023/05/13 04:22:26;;;;;;;;;;;;;;;11.94;78.23;102002.25;5065474;28;19920;-64
2023/05/13 04:24:55;;;;;;;;;;;;;;;11.94;78.21;102004.91;5063246;28;20178;-63
2023/05/13 04:27:20;;;;;;;;;;;;;;;11.93;78.11;102007.72;5064391;28;19971;-64
2023/05/13 04:29:45;;;;;;;;;;;;;;;11.92;78.55;102006.91;5065223;28;19968;-63
2023/05/13 04:32:14;;;;;;;;;;;;;;;11.93;78.23;102011.22;5059881;28;20018;-64
2023/05/13 04:34:39;;;;;;;;;;;;;;;11.92;78.26;102009.56;5064565;28;20414;-63
2023/05/13 04:37:05;;;;;;;;;;;;;;;11.93;78.50;102010.41;5066212;28;19913;-64
2023/05/13 04:39:30;;;;;;;;;;;;;;;11.93;78.58;102013.91;5061831;28;20007;-64
2023/05/13 04:41:55;;;;;;;;;;;;;;;11.95;78.50;102013.75;5056575;28;19938;-64
2023/05/13 04:44:20;;;;;;;;;;;;;;;11.95;78.59;102017.25;5059206;28;20301;-64
2023/05/13 04:46:45;;;;;;;;;;;;;;;11.95;78.59;102019.06;5063830;28;19928;-64
2023/05/13 04:49:10;;;;;;;;;;;;;;;11.97;78.76;102019.75;5064681;28;20817;-64
2023/05/13 04:51:36;;;;;;;;;;;;;;;11.99;78.74;102023.09;5066398;28;19920;-64
2023/05/13 04:54:01;;;;;;;;;;;;;;;12.01;78.91;102026.44;5061716;28;20069;-64
2023/05/13 04:56:26;;;;;;;;;;;;;;;12.03;79.07;102025.28;5056415;28;19924;-64
2023/05/13 04:58:51;;;;;;;;;;;;;;;12.07;79.48;102024.00;5062166;28;19986;-63
2023/05/13 05:01:16;;;;;;;;;;;;;;;12.09;79.62;102022.03;5059599;28;20392;-64
2023/05/13 05:03:41;;;;;;;;;;;;;;;12.14;79.53;102028.72;5065539;28;19920;-64
2023/05/13 05:06:07;;;;;;;;;;;;;;;12.18;79.73;102030.13;5060535;28;19970;-64
2023/05/13 05:08:32;;;;;;;;;;;;;;;12.20;79.50;102028.97;5060525;28;20576;-64
2023/05/13 05:10:58;;;;;;;;;;;;;;;12.23;79.94;102031.31;5068352;28;19921;-64
2023/05/13 05:13:23;;;;;;;;;;;;;;;12.27;80.21;102034.53;5061722;28;19923;-64
2023/05/13 05:15:49;;;;;;;;;;;;;;;12.31;80.08;102030.56;5063652;28;19924;-64
2023/05/13 05:18:14;;;;;;;;;;;;;;;12.33;79.88;102036.56;5058288;28;20393;-64
2023/05/13 05:20:39;;;;;;;;;;;;;;;12.36;80.15;102042.44;5059260;28;20263;-64
2023/05/13 05:23:04;;;;;;;;;;;;;;;12.41;80.32;102047.28;5057228;28;19999;-64
2023/05/13 05:25:29;;;;;;;;;;;;;;;12.45;79.93;102038.03;5058381;28;19924;-64
2023/05/13 05:27:55;;;;;;;;;;;;;;;12.49;80.01;102044.72;5057472;28;19932;-64
2023/05/13 05:30:20;;;;;;;;;;;;;;;12.55;80.28;102035.28;5068303;28;20534;-64
2023/05/13 05:32:46;;;;;;;;;;;;;;;12.60;80.13;102039.13;5070378;28;19943;-64
2023/05/13 05:35:12;;;;;;;;;;;;;;;12.65;80.14;102042.16;5069811;28;20439;-64
2023/05/13 05:37:37;;;;;;;;;;;;;;;12.70;80.46;102039.03;5064674;28;19940;-64
2023/05/13 05:40:02;;;;;;;;;;;;;;;12.75;80.43;102046.59;5069830;28;19970;-64
2023/05/13 05:42:28;;;;;;;;;;;;;;;12.80;80.40;102050.47;5060826;28;20324;-64
2023/05/13 05:44:53;;;;;;;;;;;;;;;12.84;80.27;102050.97;5058491;28;19924;-63
2023/05/13 05:47:18;;;;;;;;;;;;;;;12.86;80.25;102043.66;5061414;28;20350;-64
2023/05/13 05:49:43;;;;;;;;;;;;;;;12.87;80.70;102048.00;5064440;28;19924;-64
2023/05/13 05:52:10;;;;;;;;;;;;;;;12.90;80.65;102047.69;5057660;28;19955;-65
2023/05/13 05:54:35;;;;;;;;;;;;;;;12.94;80.46;102049.03;5058196;28;19925;-64
2023/05/13 05:57:00;;;;;;;;;;;;;;;13.00;80.79;102048.41;5058152;28;19920;-64
2023/05/13 05:59:25;;;;;;;;;;;;;;;13.03;80.48;102054.28;5057603;28;20108;-64
2023/05/13 06:01:50;;;;;;;;;;;;;;;13.10;80.95;102051.81;5062477;28;20129;-64
2023/05/13 06:04:16;;;;;;;;;;;;;;;13.19;81.15;102066.06;5055367;28;19916;-63
2023/05/13 06:06:41;;;;;;;;;;;;;;;13.26;80.71;102062.59;5067860;28;20436;-64
2023/05/13 06:09:06;;;;;;;;;;;;;;;13.36;80.93;102059.84;5059413;28;19917;-63
2023/05/13 06:11:31;;;;;;;;;;;;;;;13.46;80.57;102065.06;5068038;28;20446;-64
2023/05/13 06:13:56;;;;;;;;;;;;;;;13.54;80.96;102070.44;5062295;28;19956;-64
2023/05/13 06:16:22;;;;;;;;;;;;;;;13.62;80.31;102062.47;5070556;28;19970;-64
2023/05/13 06:18:47;;;;;;;;;;;;;;;13.69;80.46;102073.34;5060541;28;20051;-65
2023/05/13 06:21:13;;;;;;;;;;;;;;;13.78;80.51;102061.69;5059313;28;19920;-64
2023/05/13 06:23:38;;;;;;;;;;;;;;;13.85;80.05;102068.88;5068652;28;19966;-64
2023/05/13 06:26:03;;;;;;;;;;;;;;;13.89;79.63;102072.94;5068961;28;19917;-65
2023/05/13 06:28:29;;;;;;;;;;;;;;;13.93;79.57;102073.44;5069069;28;19924;-64
2023/05/13 06:30:54;;;;;;;;;;;;;;;13.99;79.54;102074.63;5062005;28;19919;-65
2023/05/13 06:33:19;;;;;;;;;;;;;;;14.02;79.58;102075.13;5058543;28;19927;-64
2023/05/13 06:35:48;;;;;;;;;;;;;;;14.05;78.96;102080.13;5061939;28;19917;-65
2023/05/13 06:38:16;;;;;;;;;;;;;;;14.07;78.99;102074.63;5066729;28;20325;-64
2023/05/13 06:40:41;;;;;;;;;;;;;;;14.10;78.48;102082.31;5063733;28;19923;-65
2023/05/13 06:43:06;;;;;;;;;;;;;;;14.13;78.74;102077.47;5070268;28;19913;-65
2023/05/13 06:45:31;;;;;;;;;;;;;;;14.17;79.01;102072.66;5069898;28;19931;-65
2023/05/13 06:47:57;;;;;;;;;;;;;;;14.20;79.02;102080.34;5066862;28;20003;-64
2023/05/13 06:50:22;;;;;;;;;;;;;;;14.23;78.83;102072.00;5070027;28;19921;-65
2023/05/13 06:52:47;;;;;;;;;;;;;;;14.27;78.53;102074.19;5061913;28;19963;-64
2023/05/13 06:55:12;;;;;;;;;;;;;;;14.33;78.68;102071.84;5068968;28;19912;-64
2023/05/13 06:57:38;;;;;;;;;;;;;;;14.36;78.80;102076.84;5069399;28;19916;-64
2023/05/13 07:00:04;;;;;;;;;;;;;;;14.39;78.88;102088.03;5065797;28;19917;-64
2023/05/13 07:02:29;;;;;;;;;;;;;;;14.45;78.93;102083.91;5066312;28;19966;-64
2023/05/13 07:04:55;;;;;;;;;;;;;;;14.50;78.61;102084.28;5068936;28;19927;-64
2023/05/13 07:07:20;;;;;;;;;;;;;;;14.57;78.76;102080.75;5068629;28;20282;-64
2023/05/13 07:09:45;;;;;;;;;;;;;;;14.63;78.55;102076.56;5061666;28;20003;-64
2023/05/13 07:12:10;;;;;;;;;;;;;;;14.70;78.66;102080.25;5068255;28;20504;-64
2023/05/13 07:14:36;;;;;;;;;;;;;;;14.72;78.41;102082.75;5069961;28;19955;-64
2023/05/13 07:17:02;;;;;;;;;;;;;;;14.72;77.67;102085.44;5062268;28;19971;-64
2023/05/13 07:19:27;;;;;;;;;;;;;;;14.73;77.45;102076.41;5055058;28;20442;-65
2023/05/13 07:21:52;;;;;;;;;;;;;;;14.77;77.43;102081.28;5068379;28;19916;-63
2023/05/13 07:24:17;;;;;;;;;;;;;;;14.80;77.61;102074.75;5069903;28;20397;-64
2023/05/13 07:26:43;;;;;;;;;;;;;;;14.87;77.52;102078.41;5058135;28;19917;-64
2023/05/13 07:29:08;;;;;;;;;;;;;;;14.98;77.60;102074.53;5058538;28;20325;-64
2023/05/13 07:31:33;;;;;;;;;;;;;;;15.08;77.83;102075.22;5066407;28;19916;-63
2023/05/13 07:33:58;;;;;;;;;;;;;;;15.14;77.47;102080.72;5070382;28;19912;-64
2023/05/13 07:36:24;;;;;;;;;;;;;;;15.17;77.44;102083.06;5068276;28;20409;-64
2023/05/13 07:38:49;;;;;;;;;;;;;;;15.19;76.95;102082.88;5059643;28;19920;-64
2023/05/13 07:41:14;;;;;;;;;;;;;;;15.23;76.89;102076.19;5057324;28;19925;-64
2023/05/13 07:43:40;;;;;;;;;;;;;;;15.27;76.67;102082.03;5068130;28;20034;-64
2023/05/13 07:46:05;;;;;;;;;;;;;;;15.29;76.57;102082.69;5065821;28;19923;-64
2023/05/13 07:48:30;;;;;;;;;;;;;;;15.32;76.72;102085.00;5064390;28;19924;-64
2023/05/13 07:50:56;;;;;;;;;;;;;;;15.35;76.54;102079.34;5069369;28;20271;-64
2023/05/13 07:53:22;;;;;;;;;;;;;;;15.39;76.51;102094.06;5065008;28;19920;-63
2023/05/13 07:55:47;;;;;;;;;;;;;;;15.42;76.42;102085.69;5067374;28;19942;-64
2023/05/13 07:58:12;;;;;;;;;;;;;;;15.44;76.69;102086.34;5065847;28;20289;-64
2023/05/13 08:00:38;;;;;;;;;;;;;;;15.42;76.69;102089.19;5062615;28;19917;-64
2023/05/13 08:03:03;;;;;;;;;;;;;;;15.43;76.58;102093.53;5058788;28;19927;-63
2023/05/13 08:05:28;;;;;;;;;;;;;;;15.46;77.08;102093.19;5065905;28;19923;-64
2023/05/13 08:07:53;;;;;;;;;;;;;;;15.54;77.17;102091.47;5064287;28;20384;-65
2023/05/13 08:10:19;;;;;;;;;;;;;;;15.65;77.31;102083.13;5061958;28;19917;-65
2023/05/13 08:12:49;;;;;;;;;;;;;;;15.76;77.38;102088.94;5058515;28;19924;-65
2023/05/13 08:15:15;;;;;;;;;;;;;;;15.85;77.23;102087.03;5056844;28;20018;-64
2023/05/13 08:17:41;;;;;;;;;;;;;;;15.90;76.74;102083.81;5064340;28;20003;-65
2023/05/13 08:20:06;;;;;;;;;;;;;;;15.96;76.80;102085.84;5064999;28;20007;-65
2023/05/13 08:22:31;;;;;;;;;;;;;;;16.00;76.35;102087.16;5060992;28;20595;-65
2023/05/13 08:24:59;;;;;;;;;;;;;;;16.02;76.14;102085.13;5059397;28;19932;-64
2023/05/13 08:27:25;;;;;;;;;;;;;;;16.06;75.94;102089.13;5062537;28;19998;-64
2023/05/13 08:29:50;;;;;;;;;;;;;;;16.13;75.86;102084.72;5067228;28;20022;-64
2023/05/13 08:32:15;;;;;;;;;;;;;;;16.23;75.46;102079.97;5060655;28;19917;-64
2023/05/13 08:34:40;;;;;;;;;;;;;;;16.36;75.30;102079.38;5064222;28;20366;-62
2023/05/13 08:37:05;;;;;;;;;;;;;;;16.48;74.77;102074.41;5061489;28;20062;-62
2023/05/13 08:39:31;;;;;;;;;;;;;;;16.58;74.33;102078.56;5064505;28;19970;-61
2023/05/13 08:41:56;;;;;;;;;;;;;;;16.72;74.14;102083.16;5060441;28;19924;-63
2023/05/13 08:44:27;;;;;;;;;;;;;;;16.86;73.97;102081.53;5067854;28;19970;-63
2023/05/13 08:46:57;;;;;;;;;;;;;;;17.00;73.67;102088.75;5054167;28;19937;-62
2023/05/13 08:49:23;;;;;;;;;;;;;;;17.13;73.10;102082.78;5061618;28;20511;-61
2023/05/13 08:51:48;;;;;;;;;;;;;;;17.24;72.54;102087.69;5062042;28;19964;-63
2023/05/13 08:54:15;;;;;;;;;;;;;;;17.36;72.40;102081.88;5064372;28;19961;-63
2023/05/13 08:56:40;;;;;;;;;;;;;;;17.50;72.47;102091.78;5059041;28;19970;-63
2023/05/13 08:59:05;;;;;;;;;;;;;;;17.63;71.34;102089.25;5057746;28;20031;-63
2023/05/13 09:01:32;;;;;;;;;;;;;;;17.76;71.16;102089.47;5065280;28;19916;-63
2023/05/13 09:04:00;;;;;;;;;;;;;;;17.91;70.80;102082.22;5057797;28;19917;-64
2023/05/13 09:06:25;;;;;;;;;;;;;;;18.10;71.03;102080.78;5070235;28;19920;-64
2023/05/13 09:08:50;;;;;;;;;;;;;;;18.27;71.21;102082.22;5067857;28;19920;-63
2023/05/13 09:11:16;;;;;;;;;;;;;;;18.45;70.04;102080.94;5068699;28;19920;-63
2023/05/13 09:13:44;;;;;;;;;;;;;;;18.61;69.40;102072.63;5063867;28;19924;-63
2023/05/13 09:16:11;;;;;;;;;;;;;;;18.78;68.99;102083.97;5066117;28;19933;-63
2023/05/13 09:18:38;;;;;;;;;;;;;;;18.95;68.55;102085.34;5065373;28;20077;-63
2023/05/13 09:21:23;;;;;;;;;;;;;;;19.11;67.57;102078.84;5064854;28;20011;-64
2023/05/13 09:23:48;;;;;;;;;;;;;;;19.27;67.00;102080.41;5056315;28;20038;-64
2023/05/13 09:26:27;;;;;;;;;;;;;;;19.39;66.44;102079.66;5066046;28;19947;-64
2023/05/13 09:29:12;;;;;;;;;;;;;;;19.57;65.99;102083.69;5065968;28;19927;-64
2023/05/13 09:31:37;;;;;;;;;;;;;;;19.76;65.77;102072.19;5064265;28;20318;-64
2023/05/13 09:34:02;;;;;;;;;;;;;;;19.96;65.60;102077.66;5062939;28;20692;-64
2023/05/13 09:36:28;;;;;;;;;;;;;;;20.10;65.28;102066.69;5061078;28;19923;-64
2023/05/13 09:38:54;;;;;;;;;;;;;;;20.22;63.92;102075.03;5058790;28;19924;-64
2023/05/13 09:41:19;;;;;;;;;;;;;;;20.36;63.33;102079.41;5063476;28;19923;-63
2023/05/13 09:43:44;;;;;;;;;;;;;;;20.49;62.86;102067.84;5070079;28;20286;-63
2023/05/13 09:46:09;;;;;;;;;;;;;;;20.65;62.92;102067.44;5070247;28;19976;-63
2023/05/13 09:48:36;;;;;;;;;;;;;;;20.80;62.20;102064.50;5069345;28;19961;-63
2023/05/13 09:51:02;;;;;;;;;;;;;;;20.89;61.93;102063.28;5071776;28;19913;-63
2023/05/13 09:53:27;;;;;;;;;;;;;;;20.98;61.95;102064.72;5070673;28;20054;-63
2023/05/13 09:55:56;;;;;;;;;;;;;;;21.13;61.33;102067.22;5070770;28;19913;-63
2023/05/13 09:58:23;;;;;;;;;;;;;;;21.32;61.12;102062.81;5066337;28;19916;-64
2023/05/13 10:00:48;;;;;;;;;;;;;;;21.48;60.85;102058.84;5069236;28;19919;-64
2023/05/13 10:03:14;;;;;;;;;;;;;;;21.61;60.17;102056.06;5059553;28;19912;-64
2023/05/13 10:05:40;;;;;;;;;;;;;;;21.76;59.98;102051.25;5068536;28;19912;-64
2023/05/13 10:08:09;;;;;;;;;;;;;;;21.87;58.84;102060.53;5068545;28;19920;-64
2023/05/13 10:10:35;;;;;;;;;;;;;;;21.97;59.09;102050.06;5063014;28;19923;-64
2023/05/13 10:13:05;;;;;;;;;;;;;;;22.07;57.77;102046.94;5061617;28;19935;-64
2023/05/13 10:15:31;;;;;;;;;;;;;;;22.14;58.56;102045.84;5065604;28;19913;-64
2023/05/13 10:17:56;;;;;;;;;;;;;;;22.21;58.64;102040.38;5070049;28;19916;-64
2023/05/13 10:20:23;;;;;;;;;;;;;;;22.37;57.71;102045.28;5069209;28;19916;-64
2023/05/13 10:22:49;;;;;;;;;;;;;;;22.47;57.41;102037.50;5068638;28;19993;-64
2023/05/13 10:25:14;;;;;;;;;;;;;;;22.55;56.74;102039.09;5059205;28;19913;-64
2023/05/13 10:27:41;;;;;;;;;;;;;;;22.62;56.48;102036.34;5066268;28;19916;-64
2023/05/13 10:30:09;;;;;;;;;;;;;;;22.68;55.79;102035.47;5071037;28;20320;-64
2023/05/13 10:32:35;;;;;;;;;;;;;;;22.74;55.60;102034.56;5064123;28;20081;-64
2023/05/13 10:35:14;;;;;;;;;;;;;;;22.82;55.23;102037.03;5070243;28;19916;-64
2023/05/13 10:37:42;;;;;;;;;;;;;;;22.89;54.31;102037.81;5061216;28;19912;-64
2023/05/13 10:40:26;;;;;;;;;;;;;;;22.99;54.35;102035.41;5071205;28;19920;-64
2023/05/13 10:43:07;;;;;;;;;;;;;;;23.07;54.56;102035.09;5070558;28;19916;-64
2023/05/13 10:45:33;;;;;;;;;;;;;;;23.14;53.74;102035.88;5070004;28;19913;-64
2023/05/13 10:48:04;;;;;;;;;;;;;;;23.23;53.38;102038.28;5068689;28;20316;-65
2023/05/13 10:50:29;;;;;;;;;;;;;;;23.32;53.00;102040.47;5069628;28;20364;-64
2023/05/13 10:52:56;;;;;;;;;;;;;;;23.38;52.95;102036.00;5062944;28;19991;-64
2023/05/13 10:55:21;;;;;;;;;;;;;;;23.46;53.39;102030.31;5067980;28;19920;-64
2023/05/13 10:58:03;;;;;;;;;;;;;;;23.50;52.97;102036.94;5067062;28;20011;-64
2023/05/13 11:00:31;;;;;;;;;;;;;;;23.61;53.14;102025.34;5059812;28;19912;-64
2023/05/13 11:02:56;;;;;;;;;;;;;;;23.71;52.63;102027.53;5069246;28;20652;-64
2023/05/13 11:05:21;;;;;;;;;;;;;;;23.78;52.62;102037.22;5066475;28;20007;-63
2023/05/13 11:07:56;;;;;;;;;;;;;;;23.86;52.18;102029.81;5068755;28;19916;-63
2023/05/13 11:10:24;;;;;;;;;;;;;;;23.94;52.42;102029.50;5069594;28;19922;-63
2023/05/13 11:13:08;;;;;;;;;;;;;;;24.03;52.17;102019.97;5068977;28;19924;-64
2023/05/13 11:15:49;;;;;;;;;;;;;;;24.10;51.43;102012.56;5068238;28;19948;-63
2023/05/13 11:18:15;;;;;;;;;;;;;;;24.17;50.36;102017.88;5069404;28;19913;-63
2023/05/13 11:20:43;;;;;;;;;;;;;;;24.22;49.14;102013.41;5063332;28;20073;-64
2023/05/13 11:23:09;;;;;;;;;;;;;;;24.26;46.71;102005.63;5069707;28;20286;-64
2023/05/13 11:25:34;;;;;;;;;;;;;;;24.31;47.13;101997.66;5064605;28;19919;-64
2023/05/13 11:27:59;;;;;;;;;;;;;;;24.36;46.99;102000.50;5064742;28;19931;-64
2023/05/13 11:30:25;;;;;;;;;;;;;;;24.39;46.78;102000.03;5065542;28;19955;-64
2023/05/13 11:32:55;;;;;;;;;;;;;;;24.46;47.01;102000.72;5068576;28;20393;-64
2023/05/13 11:35:21;;;;;;;;;;;;;;;24.55;46.43;102003.91;5069291;28;20003;-64
2023/05/13 11:37:47;;;;;;;;;;;;;;;24.61;44.96;102000.28;5068658;28;19999;-64
2023/05/13 11:40:20;;;;;;;;;;;;;;;24.51;43.15;101994.59;5056901;28;19913;-64
2023/05/13 11:42:45;;;;;;;;;;;;;;;24.41;42.88;102000.63;5066354;28;19923;-64
2023/05/13 11:45:10;;;;;;;;;;;;;;;24.47;42.91;101990.69;5059272;28;19920;-64
2023/05/13 11:47:36;;;;;;;;;;;;;;;24.57;42.77;101988.22;5068397;28;19924;-64
2023/05/13 11:50:02;;;;;;;;;;;;;;;24.60;42.61;101988.59;5066058;28;20279;-64
2023/05/13 11:52:28;;;;;;;;;;;;;;;24.56;41.58;101989.28;5069610;28;20004;-64
2023/05/13 11:54:54;;;;;;;;;;;;;;;24.59;41.00;101991.53;5063301;28;20003;-64
2023/05/13 11:57:20;;;;;;;;;;;;;;;24.62;40.75;101982.91;5067693;28;19916;-64
2023/05/13 11:59:49;;;;;;;;;;;;;;;24.59;41.50;101983.41;5063565;28;20386;-64
2023/05/13 12:02:14;;;;;;;;;;;;;;;24.62;40.05;101988.34;5066208;28;19916;-64
2023/05/13 12:04:40;;;;;;;;;;;;;;;24.52;39.11;101983.50;5068358;28;19935;-64
2023/05/13 12:07:09;;;;;;;;;;;;;;;24.43;39.02;101979.47;5067465;28;19928;-64
2023/05/13 12:09:34;;;;;;;;;;;;;;;24.39;39.27;101978.31;5066611;28;19919;-64
2023/05/13 12:12:00;;;;;;;;;;;;;;;24.46;39.94;101987.16;5064176;28;19913;-64
2023/05/13 12:14:26;;;;;;;;;;;;;;;24.55;39.53;101982.19;5067128;28;19990;-64
2023/05/13 12:16:52;;;;;;;;;;;;;;;24.65;39.21;101975.13;5068591;28;19952;-64
2023/05/13 12:19:18;;;;;;;;;;;;;;;24.76;40.29;101976.16;5067455;28;19955;-64
2023/05/13 12:21:43;;;;;;;;;;;;;;;24.78;39.20;101976.75;5062571;28;20325;-64
2023/05/13 12:24:15;;;;;;;;;;;;;;;24.56;38.91;101979.22;5059540;28;19919;-64
2023/05/13 12:26:41;;;;;;;;;;;;;;;24.49;39.22;101980.41;5065772;28;20360;-64
2023/05/13 12:29:06;;;;;;;;;;;;;;;24.59;39.10;101980.69;5066835;28;20413;-64
2023/05/13 12:31:31;;;;;;;;;;;;;;;24.70;39.17;101975.22;5066425;28;19956;-63